createdAt,value
2023-04-20T00:01:12.520Z,85.70
2023-04-20T00:03:39.697Z,85.50
2023-04-20T00:06:07.914Z,85.10
2023-04-20T00:08:34.900Z,85.10
2023-04-20T00:11:07.785Z,85.10
2023-04-20T00:13:34.762Z,85.60
2023-04-20T00:16:01.746Z,86.30
2023-04-20T00:18:28.718Z,86.60
2023-04-20T00:20:55.792Z,86.70
2023-04-20T00:23:22.736Z,87.00
2023-04-20T00:25:49.852Z,87.40
2023-04-20T00:28:16.812Z,87.80
2023-04-20T00:30:43.788Z,87.90
2023-04-20T00:33:10.946Z,88.00
2023-04-20T00:35:37.873Z,88.20
2023-04-20T00:38:04.883Z,89.00
2023-04-20T00:40:31.874Z,90.10
2023-04-20T00:43:08.790Z,90.90
2023-04-20T00:45:35.803Z,91.50
2023-04-20T00:48:03.777Z,91.70
2023-04-20T00:50:31.150Z,91.20
2023-04-20T00:52:58.898Z,90.60
2023-04-20T00:55:26.668Z,89.80
2023-04-20T00:57:53.780Z,89.50
2023-04-20T01:00:21.615Z,89.50
2023-04-20T01:02:49.229Z,89.70
2023-04-20T01:05:16.649Z,89.70
2023-04-20T01:07:43.703Z,89.70
2023-04-20T01:10:11.022Z,89.70
2023-04-20T01:12:39.819Z,89.90
2023-04-20T01:15:07.677Z,89.30
2023-04-20T01:17:38.138Z,89.00
2023-04-20T01:20:09.296Z,88.90
2023-04-20T01:22:47.114Z,89.30
2023-04-20T01:25:15.107Z,90.10
2023-04-20T01:27:42.253Z,90.70
2023-04-20T01:30:10.261Z,90.20
2023-04-20T01:32:38.325Z,89.60
2023-04-20T01:35:06.545Z,88.90
2023-04-20T01:37:33.665Z,88.20
2023-04-20T01:40:03.904Z,88.10
2023-04-20T01:42:30.980Z,88.60
2023-04-20T01:44:58.442Z,88.50
2023-04-20T01:47:31.435Z,89.30
2023-04-20T01:49:58.517Z,88.50
2023-04-20T01:52:25.752Z,88.10
2023-04-20T01:54:52.721Z,87.80
2023-04-20T01:57:19.670Z,87.20
2023-04-20T01:59:46.665Z,87.10
2023-04-20T02:02:13.714Z,87.60
2023-04-20T02:04:40.895Z,88.10
2023-04-20T02:07:07.993Z,89.80
2023-04-20T02:09:38.870Z,91.10
2023-04-20T02:12:06.116Z,92.20
2023-04-20T02:14:33.137Z,93.00
2023-04-20T02:17:01.926Z,93.70
2023-04-20T02:19:29.052Z,94.20
2023-04-20T02:21:56.082Z,94.70
2023-04-20T02:24:23.070Z,95.50
2023-04-20T02:26:50.124Z,96.60
2023-04-20T02:29:17.800Z,97.90
2023-04-20T02:31:45.247Z,99.20
2023-04-20T02:34:16.363Z,100.00
2023-04-20T02:36:43.318Z,100.00
2023-04-20T02:39:12.980Z,100.00
2023-04-20T02:41:44.130Z,100.00
2023-04-20T02:44:12.188Z,100.00
2023-04-20T02:46:39.348Z,100.00
2023-04-20T02:49:06.481Z,100.00
2023-04-20T02:51:38.100Z,100.00
2023-04-20T02:54:05.279Z,100.00
2023-04-20T02:56:32.313Z,100.00
2023-04-20T02:59:04.839Z,100.00
2023-04-20T03:01:40.993Z,100.00
2023-04-20T03:04:16.681Z,100.00
2023-04-20T03:06:57.055Z,100.00
2023-04-20T03:09:28.170Z,100.00
2023-04-20T03:12:07.180Z,100.00
2023-04-20T03:15:06.453Z,100.00
2023-04-20T03:18:05.675Z,100.00
2023-04-20T03:20:32.776Z,99.70
2023-04-20T03:23:00.042Z,99.40
2023-04-20T03:25:27.987Z,98.80
2023-04-20T03:27:59.548Z,98.50
2023-04-20T03:30:26.910Z,98.60
2023-04-20T03:33:07.910Z,98.20
2023-04-20T03:35:35.062Z,97.20
2023-04-20T03:38:02.076Z,96.30
2023-04-20T03:40:29.111Z,95.90
2023-04-20T03:42:56.233Z,95.40
2023-04-20T03:45:23.369Z,94.90
2023-04-20T03:47:50.385Z,94.50
2023-04-20T03:50:17.395Z,94.30
2023-04-20T03:52:44.448Z,94.10
2023-04-20T03:55:12.116Z,93.80
2023-04-20T03:57:45.740Z,93.50
2023-04-20T04:00:14.210Z,93.20
2023-04-20T04:02:47.662Z,93.10
2023-04-20T04:05:21.259Z,93.00
2023-04-20T04:07:49.913Z,92.70
2023-04-20T04:10:19.005Z,93.20
2023-04-20T04:12:46.362Z,93.50
2023-04-20T04:15:13.901Z,93.60
2023-04-20T04:18:01.333Z,94.30
2023-04-20T04:20:30.686Z,94.70
2023-04-20T04:22:58.385Z,94.80
2023-04-20T04:25:34.185Z,94.90
2023-04-20T04:28:01.324Z,95.20
2023-04-20T04:30:30.679Z,95.30
2023-04-20T04:32:59.896Z,95.40
2023-04-20T04:35:27.823Z,95.50
2023-04-20T04:37:55.860Z,95.90
2023-04-20T04:40:23.001Z,96.10
2023-04-20T04:42:53.080Z,95.80
2023-04-20T04:45:20.294Z,95.90
2023-04-20T04:47:47.406Z,96.50
2023-04-20T04:50:14.603Z,96.70
2023-04-20T04:52:41.588Z,97.00
2023-04-20T04:55:09.889Z,96.90
2023-04-20T04:57:38.774Z,96.70
2023-04-20T05:00:09.765Z,96.60
2023-04-20T05:02:37.187Z,96.20
2023-04-20T05:05:04.563Z,96.00
2023-04-20T05:07:31.890Z,95.90
2023-04-20T05:09:59.899Z,96.10
2023-04-20T05:12:26.911Z,95.90
2023-04-20T05:14:53.872Z,96.20
2023-04-20T05:17:20.887Z,96.30
2023-04-20T05:19:47.859Z,96.40
2023-04-20T05:22:14.810Z,96.50
2023-04-20T05:24:42.607Z,96.90
2023-04-20T05:27:11.325Z,97.40
2023-04-20T05:29:39.198Z,97.60
2023-04-20T05:32:06.290Z,97.80
2023-04-20T05:34:34.008Z,98.00
2023-04-20T05:37:01.311Z,98.20
2023-04-20T05:39:28.348Z,98.10
2023-04-20T05:41:55.472Z,97.90
2023-04-20T05:44:22.457Z,97.70
2023-04-20T05:46:50.327Z,98.00
2023-04-20T05:49:17.579Z,98.10
2023-04-20T05:51:44.756Z,98.30
2023-04-20T05:54:11.726Z,98.20
2023-04-20T05:56:38.747Z,98.50
2023-04-20T05:59:05.883Z,98.60
2023-04-20T06:01:32.860Z,98.80
2023-04-20T06:03:59.997Z,98.90
2023-04-20T06:06:27.983Z,98.70
2023-04-20T06:08:55.291Z,98.70
2023-04-20T06:11:22.292Z,98.60
2023-04-20T06:13:49.293Z,98.50
2023-04-20T06:16:16.275Z,98.30
2023-04-20T06:18:43.660Z,98.50
2023-04-20T06:21:11.438Z,98.60
2023-04-20T06:23:38.644Z,98.50
2023-04-20T06:26:08.888Z,98.40
2023-04-20T06:28:39.377Z,98.20
2023-04-20T06:31:06.729Z,97.90
2023-04-20T06:33:33.760Z,98.00
2023-04-20T06:36:00.863Z,98.10
2023-04-20T06:38:29.411Z,98.00
2023-04-20T06:40:58.942Z,97.70
2023-04-20T06:43:25.889Z,97.80
2023-04-20T06:45:52.831Z,97.70
2023-04-20T06:48:31.424Z,98.00
2023-04-20T06:51:00.132Z,98.20
2023-04-20T06:53:27.108Z,97.90
2023-04-20T06:55:55.683Z,97.80
2023-04-20T06:58:22.837Z,98.10
2023-04-20T07:00:49.802Z,97.90
2023-04-20T07:03:19.366Z,97.70
2023-04-20T07:05:46.793Z,97.50
2023-04-20T07:08:16.142Z,97.50
2023-04-20T07:10:43.346Z,97.20
2023-04-20T07:13:10.419Z,96.90
2023-04-20T07:15:37.485Z,96.00
2023-04-20T07:18:04.513Z,96.00
2023-04-20T07:20:31.635Z,95.90
2023-04-20T07:23:05.937Z,96.50
2023-04-20T07:25:33.028Z,96.10
2023-04-20T07:27:59.999Z,96.30
2023-04-20T07:30:27.120Z,96.20
2023-04-20T07:32:54.456Z,96.00
2023-04-20T07:35:21.674Z,95.60
2023-04-20T07:37:48.735Z,94.70
2023-04-20T07:40:16.937Z,93.80
2023-04-20T07:42:43.831Z,92.90
2023-04-20T07:45:12.535Z,92.20
2023-04-20T07:47:40.159Z,91.80
2023-04-20T07:50:07.785Z,90.90
2023-04-20T07:52:35.749Z,90.60
2023-04-20T07:55:02.966Z,90.10
2023-04-20T07:57:29.890Z,89.70
2023-04-20T07:59:56.829Z,89.10
2023-04-20T08:02:24.497Z,88.60
2023-04-20T08:04:51.846Z,88.30
2023-04-20T08:07:19.090Z,88.00
2023-04-20T08:09:45.966Z,88.60
2023-04-20T08:12:13.179Z,88.60
2023-04-20T08:14:41.367Z,88.70
2023-04-20T08:17:08.661Z,88.50
2023-04-20T08:19:36.305Z,88.30
2023-04-20T08:22:05.117Z,88.30
2023-04-20T08:24:32.295Z,88.80
2023-04-20T08:26:59.499Z,88.70
2023-04-20T08:29:26.654Z,88.00
2023-04-20T08:31:53.814Z,87.50
2023-04-20T08:34:20.820Z,87.60
2023-04-20T08:36:47.971Z,87.50
2023-04-20T08:39:19.426Z,87.60
2023-04-20T08:41:48.068Z,87.90
2023-04-20T08:44:15.398Z,86.60
2023-04-20T08:46:47.573Z,86.70
2023-04-20T08:49:18.864Z,86.70
2023-04-20T08:51:46.942Z,86.90
2023-04-20T08:54:14.417Z,86.90
2023-04-20T08:56:46.582Z,85.80
2023-04-20T08:59:14.296Z,85.90
2023-04-20T09:01:42.775Z,85.70
2023-04-20T09:04:22.728Z,85.30
2023-04-20T09:06:52.599Z,84.70
2023-04-20T09:09:21.191Z,84.30
2023-04-20T09:11:48.907Z,84.10
2023-04-20T09:14:17.230Z,83.50
2023-04-20T09:16:52.544Z,83.30
2023-04-20T09:19:26.814Z,83.40
2023-04-20T09:21:56.571Z,83.60
2023-04-20T09:24:34.532Z,84.00
2023-04-20T09:27:02.872Z,83.50
2023-04-20T09:29:30.404Z,83.20
2023-04-20T09:31:57.719Z,83.40
2023-04-20T09:34:24.849Z,83.00
2023-04-20T09:36:55.623Z,83.10
2023-04-20T09:39:24.195Z,83.40
2023-04-20T09:41:52.553Z,83.50
2023-04-20T09:44:20.289Z,83.10
2023-04-20T09:46:47.404Z,83.50
2023-04-20T09:49:15.130Z,83.00
2023-04-20T09:51:46.677Z,82.80
2023-04-20T09:54:15.807Z,83.50
2023-04-20T09:56:43.352Z,84.10
2023-04-20T09:59:10.319Z,85.40
2023-04-20T10:01:38.366Z,84.90
2023-04-20T10:04:11.006Z,85.00
2023-04-20T10:06:38.694Z,84.80
2023-04-20T10:09:07.948Z,84.70
2023-04-20T10:11:49.775Z,82.20
2023-04-20T10:14:23.300Z,81.40
2023-04-20T10:17:08.632Z,82.00
2023-04-20T10:19:44.220Z,79.60
2023-04-20T10:22:13.768Z,79.40
2023-04-20T10:24:40.771Z,78.20
2023-04-20T10:27:20.979Z,78.20
2023-04-20T10:29:48.353Z,77.80
2023-04-20T10:32:29.041Z,76.00
2023-04-20T10:35:07.843Z,75.00
2023-04-20T10:37:35.594Z,74.40
2023-04-20T10:40:07.382Z,73.60
2023-04-20T10:42:43.564Z,72.00
2023-04-20T10:45:11.489Z,72.60
2023-04-20T10:47:40.810Z,70.70
2023-04-20T10:50:13.456Z,72.70
2023-04-20T10:52:42.549Z,73.10
2023-04-20T10:55:26.266Z,72.80
2023-04-20T10:57:53.525Z,72.00
2023-04-20T11:00:23.261Z,71.90
2023-04-20T11:02:57.254Z,71.50
2023-04-20T11:05:27.170Z,71.10
2023-04-20T11:07:58.057Z,71.80
2023-04-20T11:10:40.303Z,70.50
2023-04-20T11:13:08.264Z,71.40
2023-04-20T11:15:35.931Z,72.30
2023-04-20T11:18:11.786Z,71.70
2023-04-20T11:20:53.761Z,71.90
2023-04-20T11:23:22.320Z,71.40
2023-04-20T11:25:52.933Z,71.50
2023-04-20T11:28:20.327Z,70.30
2023-04-20T11:30:49.674Z,70.20
2023-04-20T11:33:29.666Z,70.00
2023-04-20T11:35:58.026Z,69.90
2023-04-20T11:38:32.833Z,70.40
2023-04-20T11:41:04.705Z,70.60
2023-04-20T11:43:35.956Z,70.20
2023-04-20T11:46:03.384Z,69.80
2023-04-20T11:48:33.772Z,70.30
2023-04-20T11:51:00.858Z,70.50
2023-04-20T11:53:27.967Z,69.80
2023-04-20T11:55:54.927Z,69.70
2023-04-20T11:58:21.861Z,70.60
2023-04-20T12:00:48.833Z,70.70
2023-04-20T12:03:15.926Z,71.70
2023-04-20T12:05:43.334Z,71.70
2023-04-20T12:08:12.495Z,72.30
2023-04-20T12:10:40.194Z,72.30
2023-04-20T12:13:07.171Z,71.70
2023-04-20T12:15:34.175Z,71.80
2023-04-20T12:18:01.317Z,71.60
2023-04-20T12:20:28.388Z,71.70
2023-04-20T12:22:56.685Z,71.30
2023-04-20T12:25:25.672Z,71.60
2023-04-20T12:27:52.718Z,72.40
2023-04-20T12:30:19.717Z,72.90
2023-04-20T12:32:46.634Z,72.60
2023-04-20T12:35:13.531Z,72.70
2023-04-20T12:37:40.445Z,72.70
2023-04-20T12:40:08.137Z,73.40
2023-04-20T12:42:35.060Z,73.30
2023-04-20T12:45:02.147Z,73.30
2023-04-20T12:47:29.145Z,73.30
2023-04-20T12:49:56.310Z,73.30
2023-04-20T12:52:23.307Z,73.90
2023-04-20T12:54:50.593Z,74.10
2023-04-20T12:57:17.620Z,74.90
2023-04-20T12:59:44.623Z,74.70
2023-04-20T13:02:12.215Z,74.70
2023-04-20T13:04:39.400Z,74.70
2023-04-20T13:07:06.863Z,74.10
2023-04-20T13:09:33.830Z,74.60
2023-04-20T13:12:00.773Z,74.30
2023-04-20T13:14:27.678Z,74.90
2023-04-20T13:16:55.592Z,75.20
2023-04-20T13:19:22.856Z,75.20
2023-04-20T13:21:49.823Z,75.30
2023-04-20T13:24:16.956Z,75.70
2023-04-20T13:26:44.196Z,75.70
2023-04-20T13:29:11.384Z,76.00
2023-04-20T13:31:38.958Z,76.30
2023-04-20T13:34:06.208Z,76.80
2023-04-20T13:36:33.353Z,77.00
2023-04-20T13:39:01.962Z,77.80
2023-04-20T13:41:28.984Z,78.10
2023-04-20T13:43:57.915Z,78.20
2023-04-20T13:46:25.028Z,78.20
2023-04-20T13:48:52.099Z,78.30
2023-04-20T13:51:19.475Z,78.10
2023-04-20T13:53:48.665Z,78.40
2023-04-20T13:56:18.753Z,78.30
2023-04-20T13:58:45.736Z,78.70
2023-04-20T14:01:15.794Z,78.80
2023-04-20T14:03:43.464Z,78.90
2023-04-20T14:06:10.940Z,79.10
2023-04-20T14:08:38.090Z,79.30
2023-04-20T14:11:05.125Z,79.30
2023-04-20T14:13:32.130Z,79.40
2023-04-20T14:15:59.181Z,79.30
2023-04-20T14:18:26.366Z,79.60
2023-04-20T14:20:53.472Z,79.60
2023-04-20T14:23:20.449Z,79.90
2023-04-20T14:25:47.369Z,80.00
2023-04-20T14:28:16.928Z,80.30
2023-04-20T14:30:45.905Z,80.60
2023-04-20T14:33:13.198Z,80.40
2023-04-20T14:35:40.555Z,80.30
2023-04-20T14:38:07.511Z,80.50
2023-04-20T14:40:34.684Z,80.00
2023-04-20T14:43:01.708Z,80.30
2023-04-20T14:45:29.239Z,79.90
2023-04-20T14:47:57.128Z,79.20
2023-04-20T14:50:27.964Z,79.20
2023-04-20T14:52:55.698Z,79.90
2023-04-20T14:55:25.674Z,79.70
2023-04-20T14:57:57.630Z,80.20
2023-04-20T15:00:25.682Z,81.10
2023-04-20T15:02:53.825Z,81.70
2023-04-20T15:05:20.941Z,83.20
2023-04-20T15:07:50.802Z,84.10
2023-04-20T15:10:20.940Z,84.80
2023-04-20T15:12:48.427Z,85.30
2023-04-20T15:15:15.984Z,85.60
2023-04-20T15:17:43.383Z,85.80
2023-04-20T15:20:10.861Z,85.90
2023-04-20T15:22:37.853Z,85.80
2023-04-20T15:25:05.438Z,85.80
2023-04-20T15:27:32.571Z,86.00
2023-04-20T15:29:59.536Z,85.90
2023-04-20T15:32:27.068Z,86.40
2023-04-20T15:34:53.936Z,86.90
2023-04-20T15:37:20.923Z,87.00
2023-04-20T15:39:47.790Z,86.70
2023-04-20T15:42:14.738Z,86.80
2023-04-20T15:44:41.803Z,87.10
2023-04-20T15:47:08.916Z,87.10
2023-04-20T15:49:40.486Z,87.00
2023-04-20T15:52:10.748Z,87.00
2023-04-20T15:54:37.981Z,86.40
2023-04-20T15:57:05.084Z,86.80
2023-04-20T15:59:32.458Z,87.10
2023-04-20T16:01:59.752Z,87.00
2023-04-20T16:04:27.004Z,86.70
2023-04-20T16:06:54.114Z,86.70
2023-04-20T16:09:23.066Z,86.80
2023-04-20T16:11:50.813Z,87.00
2023-04-20T16:14:18.070Z,86.80
2023-04-20T16:16:45.500Z,87.10
2023-04-20T16:19:13.823Z,87.20
2023-04-20T16:21:41.403Z,87.10
2023-04-20T16:24:08.447Z,87.30
2023-04-20T16:26:36.224Z,87.50
2023-04-20T16:29:03.607Z,87.80
2023-04-20T16:31:31.309Z,88.00
2023-04-20T16:33:58.975Z,88.20
2023-04-20T16:36:27.104Z,88.30
2023-04-20T16:38:54.130Z,88.40
2023-04-20T16:41:21.801Z,88.60
2023-04-20T16:43:48.696Z,88.80
2023-04-20T16:46:16.585Z,88.90
2023-04-20T16:48:44.144Z,89.20
2023-04-20T16:51:11.211Z,89.50
2023-04-20T16:53:38.153Z,89.60
2023-04-20T16:56:05.194Z,89.60
2023-04-20T16:58:32.184Z,90.00
2023-04-20T17:00:59.128Z,89.60
2023-04-20T17:03:26.219Z,89.90
2023-04-20T17:05:56.456Z,90.00
2023-04-20T17:08:26.421Z,90.30
2023-04-20T17:10:53.307Z,90.50
2023-04-20T17:13:20.195Z,90.60
2023-04-20T17:15:47.152Z,90.80
2023-04-20T17:18:14.127Z,91.20
2023-04-20T17:20:42.299Z,91.90
2023-04-20T17:23:09.345Z,92.50
2023-04-20T17:25:36.297Z,92.40
2023-04-20T17:28:03.626Z,92.70
2023-04-20T17:30:30.602Z,93.00
2023-04-20T17:32:59.329Z,93.30
2023-04-20T17:35:26.890Z,93.80
2023-04-20T17:37:53.770Z,94.20
2023-04-20T17:40:20.815Z,94.30
2023-04-20T17:42:47.697Z,94.90
2023-04-20T17:45:14.637Z,94.60
2023-04-20T17:47:41.583Z,95.10
2023-04-20T17:50:10.227Z,95.40
2023-04-20T17:52:37.186Z,95.30
2023-04-20T17:55:04.391Z,95.50
2023-04-20T17:57:31.469Z,96.00
2023-04-20T17:59:58.418Z,95.60
2023-04-20T18:02:26.104Z,95.80
2023-04-20T18:04:55.372Z,95.70
2023-04-20T18:07:22.422Z,96.00
2023-04-20T18:09:49.374Z,96.40
2023-04-20T18:12:16.425Z,96.40
2023-04-20T18:14:44.124Z,97.00
2023-04-20T18:17:11.163Z,97.40
2023-04-20T18:19:38.179Z,97.60
2023-04-20T18:22:05.227Z,98.00
2023-04-20T18:24:32.175Z,98.10
2023-04-20T18:26:59.286Z,98.00
2023-04-20T18:29:26.436Z,97.90
2023-04-20T18:31:56.008Z,97.80
2023-04-20T18:34:23.032Z,97.90
2023-04-20T18:36:50.074Z,97.90
2023-04-20T18:43:20.793Z,97.60
2023-04-20T18:45:47.728Z,96.90
2023-04-20T18:48:14.692Z,96.80
2023-04-20T18:50:41.614Z,96.70
2023-04-20T18:53:08.567Z,96.50
2023-04-20T18:55:36.675Z,96.60
2023-04-20T18:58:04.622Z,96.60
2023-04-20T19:00:31.624Z,97.50
2023-04-20T19:02:58.758Z,98.30
2023-04-20T19:05:25.877Z,99.00
2023-04-20T19:07:52.734Z,99.80
2023-04-20T19:10:19.656Z,100.00
2023-04-20T19:12:46.531Z,100.00
2023-04-20T19:15:13.572Z,100.00
2023-04-20T19:17:42.061Z,100.00
2023-04-20T19:20:10.294Z,100.00
2023-04-20T19:22:37.252Z,100.00
2023-04-20T19:25:04.894Z,100.00
2023-04-20T19:27:32.146Z,100.00
2023-04-20T19:29:59.120Z,100.00
2023-04-20T19:32:26.183Z,100.00
2023-04-20T19:34:57.347Z,100.00
2023-04-20T19:37:24.448Z,100.00
2023-04-20T19:39:51.406Z,100.00
2023-04-20T19:42:18.815Z,100.00
2023-04-20T19:44:46.022Z,100.00
2023-04-20T19:47:13.011Z,100.00
2023-04-20T19:49:40.109Z,100.00
2023-04-20T19:52:07.582Z,99.90
2023-04-20T19:54:34.539Z,99.70
2023-04-20T19:57:01.534Z,99.50
2023-04-20T19:59:30.036Z,99.10
2023-04-20T20:01:57.177Z,99.00
2023-04-20T20:04:24.339Z,98.60
2023-04-20T20:06:51.467Z,98.30
2023-04-20T20:09:20.690Z,98.10
2023-04-20T20:11:50.305Z,98.10
2023-04-20T20:14:17.709Z,98.00
2023-04-20T20:16:44.950Z,97.80
2023-04-20T20:20:09.729Z,97.70
2023-04-20T20:22:37.513Z,97.60
2023-04-20T20:25:05.227Z,97.60
2023-04-20T20:27:32.222Z,97.60
2023-04-20T20:29:59.298Z,97.60
2023-04-20T20:32:26.318Z,98.00
2023-04-20T20:34:53.384Z,98.60
2023-04-20T20:37:21.422Z,98.90
2023-04-20T20:39:48.442Z,99.10
2023-04-20T20:42:18.584Z,99.20
2023-04-20T20:44:45.643Z,99.20
2023-04-20T20:47:12.577Z,99.30
2023-04-20T20:49:39.549Z,99.60
2023-04-20T20:52:07.314Z,99.90
2023-04-20T20:54:34.322Z,100.00
2023-04-20T20:57:01.808Z,100.00
2023-04-20T20:59:28.785Z,100.00
2023-04-20T21:01:55.902Z,100.00
2023-04-20T21:04:22.970Z,100.00
2023-04-20T21:06:50.090Z,100.00
2023-04-20T21:09:17.781Z,100.00
2023-04-20T21:11:45.018Z,100.00
2023-04-20T21:14:11.972Z,100.00
2023-04-20T21:16:39.612Z,100.00
2023-04-20T21:19:06.589Z,100.00
2023-04-20T21:21:34.164Z,100.00
2023-04-20T21:24:01.277Z,100.00
2023-04-20T21:26:29.543Z,100.00
2023-04-20T21:28:56.517Z,100.00
2023-04-20T21:31:23.493Z,100.00
2023-04-20T21:33:50.690Z,100.00
2023-04-20T21:36:17.664Z,100.00
2023-04-20T21:38:44.672Z,100.00
2023-04-20T21:41:11.647Z,100.00
2023-04-20T21:43:38.581Z,100.00
2023-04-20T21:46:05.695Z,100.00
2023-04-20T21:52:45.127Z,100.00
2023-04-20T21:55:12.235Z,100.00
2023-04-20T21:57:39.256Z,100.00
2023-04-20T22:00:08.747Z,100.00
2023-04-20T22:02:41.481Z,100.00
2023-04-20T22:05:09.634Z,100.00
2023-04-20T22:07:36.546Z,100.00
2023-04-20T22:10:03.600Z,100.00
2023-04-20T22:12:39.388Z,100.00
2023-04-20T22:15:13.506Z,100.00
2023-04-20T22:17:41.272Z,100.00
2023-04-20T22:20:10.455Z,100.00
2023-04-20T22:22:38.332Z,100.00
2023-04-20T22:25:07.113Z,100.00
2023-04-20T22:27:35.014Z,100.00
2023-04-20T22:30:02.262Z,100.00
2023-04-20T22:32:29.312Z,100.00
2023-04-20T22:35:50.639Z,100.00
2023-04-20T22:38:17.588Z,100.00
2023-04-20T22:40:44.658Z,100.00
2023-04-20T22:43:11.708Z,100.00
2023-04-20T22:45:38.645Z,100.00
2023-04-20T22:48:06.022Z,99.90
2023-04-20T22:50:33.192Z,99.80
2023-04-20T22:53:00.112Z,100.00
2023-04-20T22:55:27.222Z,100.00
2023-04-20T22:57:54.200Z,100.00
2023-04-20T23:00:21.265Z,100.00
2023-04-20T23:02:48.293Z,100.00
2023-04-20T23:05:20.465Z,100.00
2023-04-20T23:07:47.699Z,100.00
2023-04-20T23:10:17.374Z,100.00
2023-04-20T23:12:47.343Z,100.00
2023-04-20T23:15:14.400Z,100.00
2023-04-20T23:17:41.432Z,100.00
2023-04-20T23:20:13.734Z,100.00
2023-04-20T23:22:41.089Z,100.00
2023-04-20T23:25:10.003Z,100.00
2023-04-20T23:27:37.095Z,100.00
2023-04-20T23:30:04.527Z,100.00
2023-04-20T23:32:31.764Z,100.00
2023-04-20T23:34:58.814Z,100.00
2023-04-20T23:37:25.752Z,100.00
2023-04-20T23:39:52.711Z,100.00
2023-04-20T23:42:19.673Z,100.00
2023-04-20T23:44:46.636Z,100.00
2023-04-20T23:47:15.526Z,100.00
2023-04-20T23:49:42.504Z,100.00
2023-04-20T23:52:09.544Z,100.00
2023-04-20T23:54:36.481Z,100.00
2023-04-20T23:57:03.537Z,100.00
2023-04-20T23:59:30.720Z,100.00
